Time;durP1;ratioP1;P1;durP2;ratioP2;P2;SDS_P1;SDS_P2;PMS_P1;PMS_P2;Temp;Humidity;BMP_temperature;BMP_pressure;BME280_temperature;BME280_humidity;BME280_pressure;Samples;Min_cycle;Max_cycle;Signal;HPM_P1;HPM_P2
2023/10/19 00:01:11;;;;;;;13.77;12.30;;;;;;;;;;5097317;28;20377;-59
2023/10/19 00:03:37;;;;;;;13.70;11.55;;;;;;;;;;5096697;28;20089;-59
2023/10/19 00:06:05;;;;;;;13.23;11.65;;;;;;;;;;5097152;28;20024;-59
2023/10/19 00:09:04;;;;;;;13.20;11.77;;;;;;;;;;5097166;28;20032;-59
2023/10/19 00:11:25;;;;;;;12.98;11.55;;;;;;;;;;5093404;28;20097;-59
2023/10/19 00:13:54;;;;;;;14.07;12.63;;;;;;;;;;5097104;28;20028;-59
2023/10/19 00:16:25;;;;;;;17.60;12.45;;;;;;;;;;5096464;28;20021;-59
2023/10/19 00:18:52;;;;;;;12.10;10.80;;;;;;;;;;5095781;28;20020;-59
2023/10/19 00:21:28;;;;;;;15.88;13.40;;;;;;;;;;5096433;28;20028;-59
2023/10/19 00:23:56;;;;;;;15.02;12.77;;;;;;;;;;5096369;28;20122;-59
2023/10/19 00:26:25;;;;;;;12.77;11.48;;;;;;;;;;5096384;28;20073;-59
2023/10/19 00:28:55;;;;;;;13.00;11.63;;;;;;;;;;5096498;28;20380;-62
2023/10/19 00:31:21;;;;;;;12.50;11.27;;;;;;;;;;5096709;28;20027;-59
2023/10/19 00:33:51;;;;;;;12.63;11.40;;;;;;;;;;5096630;28;20031;-59
2023/10/19 00:36:20;;;;;;;12.32;10.82;;;;;;;;;;5096012;28;20526;-59
2023/10/19 00:41:20;;;;;;;11.85;9.93;;;;;;;;;;5096076;28;20097;-59
2023/10/19 00:43:48;;;;;;;11.48;9.45;;;;;;;;;;5096756;28;20112;-59
2023/10/19 00:48:58;;;;;;;10.80;9.55;;;;;;;;;;5096128;28;20036;-59
2023/10/19 00:51:27;;;;;;;13.10;9.73;;;;;;;;;;5096622;28;20016;-59
2023/10/19 00:53:54;;;;;;;8.98;8.18;;;;;;;;;;5095738;28;20086;-59
2023/10/19 00:56:20;;;;;;;9.70;8.48;;;;;;;;;;5095689;28;20056;-59
2023/10/19 00:58:53;;;;;;;11.02;9.00;;;;;;;;;;5096031;28;20027;-59
2023/10/19 01:01:23;;;;;;;9.80;8.80;;;;;;;;;;5096128;28;20484;-59
2023/10/19 01:03:52;;;;;;;10.73;8.20;;;;;;;;;;5095503;28;20522;-59
2023/10/19 01:06:20;;;;;;;;;;;;;;;;;;5096436;28;20028;-59
2023/10/19 01:08:46;;;;;;;8.80;7.50;;;;;;;;;;5095425;28;19910;-59
2023/10/19 01:11:15;;;;;;;9.25;8.02;;;;;;;;;;5095795;28;20024;-59
2023/10/19 01:13:44;;;;;;;8.32;7.53;;;;;;;;;;5095366;28;20032;-59
2023/10/19 01:16:20;;;;;;;7.53;6.07;;;;;;;;;;5095293;28;20458;-59
2023/10/19 01:18:47;;;;;;;7.15;6.45;;;;;;;;;;5095713;28;20031;-59
2023/10/19 01:21:13;;;;;;;8.60;6.72;;;;;;;;;;5096039;28;20029;-59
2023/10/19 01:23:39;;;;;;;9.27;7.10;;;;;;;;;;5095147;28;20114;-59
2023/10/19 01:26:07;;;;;;;11.32;7.00;;;;;;;;;;5095090;28;20103;-59
2023/10/19 01:31:06;;;;;;;7.55;6.82;;;;;;;;;;5095372;28;20032;-59
2023/10/19 01:33:34;;;;;;;9.98;7.57;;;;;;;;;;5094989;28;20028;-59
2023/10/19 01:38:47;;;;;;;7.15;6.45;;;;;;;;;;5095058;28;20035;-59
2023/10/19 01:41:13;;;;;;;8.13;7.32;;;;;;;;;;5095016;28;20032;-59
2023/10/19 01:43:49;;;;;;;11.43;7.75;;;;;;;;;;5094821;28;20092;-59
2023/10/19 01:46:31;;;;;;;8.10;7.30;;;;;;;;;;5095284;28;20058;-59
2023/10/19 01:48:57;;;;;;;7.85;7.10;;;;;;;;;;5095285;28;20028;-59
2023/10/19 01:51:24;;;;;;;9.32;7.95;;;;;;;;;;5095174;28;20055;-59
2023/10/19 01:53:50;;;;;;;8.65;7.75;;;;;;;;;;5095101;28;20032;-59
2023/10/19 01:56:17;;;;;;;11.30;8.88;;;;;;;;;;5093550;28;20378;-59
2023/10/19 01:58:46;;;;;;;11.32;9.50;;;;;;;;;;5094488;28;20028;-59
2023/10/19 02:03:41;;;;;;;10.23;9.23;;;;;;;;;;5094621;28;20034;-59
2023/10/19 02:06:20;;;;;;;9.95;9.00;;;;;;;;;;5094371;28;20039;-59
2023/10/19 02:08:49;;;;;;;9.82;8.90;;;;;;;;;;5094026;28;20466;-59
2023/10/19 02:11:18;;;;;;;9.95;8.95;;;;;;;;;;5095117;28;20040;-59
2023/10/19 02:13:51;;;;;;;9.17;8.27;;;;;;;;;;5094303;28;20109;-59
2023/10/19 02:16:22;;;;;;;9.52;8.57;;;;;;;;;;5094459;28;20833;-59
2023/10/19 02:18:48;;;;;;;11.13;8.60;;;;;;;;;;5094910;28;20032;-59
2023/10/19 02:21:14;;;;;;;8.73;7.82;;;;;;;;;;5094457;28;20060;-59
2023/10/19 02:23:44;;;;;;;13.48;7.65;;;;;;;;;;5094604;28;20055;-59
2023/10/19 02:26:13;;;;;;;8.80;7.85;;;;;;;;;;5094614;28;20028;-59
2023/10/19 02:28:39;;;;;;;7.47;6.63;;;;;;;;;;5093983;28;20465;-59
2023/10/19 02:31:15;;;;;;;8.52;6.32;;;;;;;;;;5094517;28;20056;-59
2023/10/19 02:33:45;;;;;;;9.60;5.82;;;;;;;;;;5094244;28;20020;-59
2023/10/19 02:36:12;;;;;;;10.02;5.60;;;;;;;;;;5094089;28;20444;-59
2023/10/19 02:38:39;;;;;;;6.00;5.40;;;;;;;;;;5094399;28;20035;-59
2023/10/19 02:41:05;;;;;;;5.47;4.88;;;;;;;;;;5093523;28;20111;-59
2023/10/19 02:43:32;;;;;;;8.82;5.70;;;;;;;;;;5094382;28;20051;-59
2023/10/19 02:45:59;;;;;;;8.50;5.40;;;;;;;;;;5093733;28;20026;-59
2023/10/19 02:48:25;;;;;;;6.28;4.55;;;;;;;;;;5094487;28;20020;-59
2023/10/19 02:50:51;;;;;;;9.45;5.28;;;;;;;;;;5093734;28;20059;-59
2023/10/19 02:53:19;;;;;;;7.68;4.82;;;;;;;;;;5093670;28;20031;-59
2023/10/19 02:55:45;;;;;;;4.35;3.95;;;;;;;;;;5094120;28;20024;-59
2023/10/19 02:58:11;;;;;;;6.13;5.00;;;;;;;;;;5094053;28;20028;-59
2023/10/19 03:00:40;;;;;;;10.00;5.32;;;;;;;;;;5094344;28;20028;-59
2023/10/19 03:03:06;;;;;;;6.57;5.57;;;;;;;;;;5093536;28;20028;-59
2023/10/19 03:05:34;;;;;;;5.93;4.95;;;;;;;;;;5093188;28;20042;-59
2023/10/19 03:08:00;;;;;;;7.38;5.95;;;;;;;;;;5094388;28;20097;-59
2023/10/19 03:10:44;;;;;;;5.53;4.38;;;;;;;;;;5093738;28;20481;-59
2023/10/19 03:13:14;;;;;;;6.18;4.95;;;;;;;;;;5093810;28;20478;-59
2023/10/19 03:15:42;;;;;;;4.90;3.75;;;;;;;;;;5093432;28;20028;-59
2023/10/19 03:18:08;;;;;;;6.38;4.13;;;;;;;;;;5093328;28;20571;-59
2023/10/19 03:20:38;;;;;;;6.68;4.72;;;;;;;;;;5093127;28;20123;-59
2023/10/19 03:23:04;;;;;;;6.57;4.20;;;;;;;;;;5093626;28;20020;-59
2023/10/19 03:25:56;;;;;;;4.88;3.83;;;;;;;;;;5093350;28;20028;-59
2023/10/19 03:28:26;;;;;;;6.50;4.22;;;;;;;;;;5093343;28;20089;-59
2023/10/19 03:30:55;;;;;;;5.93;4.43;;;;;;;;;;5093627;28;20022;-59
2023/10/19 03:33:26;;;;;;;5.65;4.72;;;;;;;;;;5092986;28;20466;-59
2023/10/19 03:35:53;;;;;;;5.32;4.03;;;;;;;;;;5093656;28;20431;-59
2023/10/19 03:38:22;;;;;;;5.47;4.68;;;;;;;;;;5092927;28;20492;-59
2023/10/19 03:40:51;;;;;;;6.25;4.63;;;;;;;;;;5093841;28;20028;-59
2023/10/19 03:43:21;;;;;;;6.07;4.63;;;;;;;;;;5093486;28;20060;-59
2023/10/19 03:45:52;;;;;;;6.78;5.35;;;;;;;;;;5093679;28;20039;-59
2023/10/19 03:48:23;;;;;;;7.85;5.82;;;;;;;;;;5093759;28;20032;-59
2023/10/19 03:50:52;;;;;;;8.32;5.72;;;;;;;;;;5092462;28;20028;-59
2023/10/19 03:53:18;;;;;;;5.28;4.75;;;;;;;;;;5096318;28;20035;-59
2023/10/19 03:55:44;;;;;;;5.57;4.68;;;;;;;;;;5096851;28;20115;-59
2023/10/19 03:58:12;;;;;;;5.28;4.78;;;;;;;;;;5097298;28;20456;-59
2023/10/19 04:00:38;;;;;;;5.28;4.47;;;;;;;;;;5096840;28;20474;-59
2023/10/19 04:03:04;;;;;;;5.72;5.20;;;;;;;;;;5096751;28;20016;-59
2023/10/19 04:05:31;;;;;;;5.50;4.30;;;;;;;;;;5097565;28;20098;-59
2023/10/19 04:07:58;;;;;;;7.72;6.07;;;;;;;;;;5097010;28;20158;-59
2023/10/19 04:13:00;;;;;;;6.35;5.75;;;;;;;;;;5097027;28;20039;-59
2023/10/19 04:15:27;;;;;;;5.30;4.80;;;;;;;;;;5096526;28;20490;-59
2023/10/19 04:17:54;;;;;;;5.82;4.72;;;;;;;;;;5095985;28;20028;-59
2023/10/19 04:20:29;;;;;;;5.10;4.35;;;;;;;;;;5097290;28;20032;-59
2023/10/19 04:22:56;;;;;;;6.97;5.38;;;;;;;;;;5096440;28;20036;-59
2023/10/19 04:25:25;;;;;;;5.95;5.25;;;;;;;;;;5096288;28;20082;-59
2023/10/19 04:27:52;;;;;;;5.82;4.90;;;;;;;;;;5096345;28;20031;-59
2023/10/19 04:30:21;;;;;;;6.47;4.85;;;;;;;;;;5097145;28;20431;-59
2023/10/19 04:32:47;;;;;;;5.43;4.20;;;;;;;;;;5096744;28;20028;-59
2023/10/19 04:35:21;;;;;;;5.43;3.85;;;;;;;;;;5096086;28;20031;-59
2023/10/19 04:37:47;;;;;;;7.80;4.35;;;;;;;;;;5097030;28;20044;-59
2023/10/19 04:40:13;;;;;;;5.07;4.13;;;;;;;;;;5096703;28;20031;-59
2023/10/19 04:42:39;;;;;;;6.35;4.25;;;;;;;;;;5096108;28;20039;-59
2023/10/19 04:45:05;;;;;;;11.30;4.40;;;;;;;;;;5096492;28;20107;-59
2023/10/19 04:47:35;;;;;;;9.10;5.28;;;;;;;;;;5095873;28;20070;-59
2023/10/19 04:50:01;;;;;;;5.05;3.83;;;;;;;;;;5095743;28;20028;-59
2023/10/19 04:52:27;;;;;;;5.15;3.88;;;;;;;;;;5096126;28;20035;-59
2023/10/19 04:54:54;;;;;;;5.18;4.60;;;;;;;;;;5095794;28;20016;-59
2023/10/19 04:57:23;;;;;;;6.68;4.35;;;;;;;;;;5095991;28;20461;-59
2023/10/19 04:59:49;;;;;;;4.90;4.20;;;;;;;;;;5095701;28;20128;-59
2023/10/19 05:02:15;;;;;;;5.38;4.43;;;;;;;;;;5096081;28;20457;-59
2023/10/19 05:04:40;;;;;;;5.93;4.68;;;;;;;;;;5095038;28;20036;-59
2023/10/19 05:07:11;;;;;;;4.82;4.22;;;;;;;;;;5096063;28;20024;-59
2023/10/19 05:09:39;;;;;;;;;;;;;;;;;;5096552;28;20438;-59
2023/10/19 05:12:09;;;;;;;6.25;5.05;;;;;;;;;;5095317;28;19915;-59
2023/10/19 05:14:35;;;;;;;7.82;4.97;;;;;;;;;;5095952;28;20363;-58
2023/10/19 05:17:04;;;;;;;9.07;5.00;;;;;;;;;;5095248;28;20086;-59
2023/10/19 05:19:30;;;;;;;6.95;5.72;;;;;;;;;;5094984;28;20031;-59
2023/10/19 05:21:57;;;;;;;7.13;5.47;;;;;;;;;;5095463;28;20039;-59
2023/10/19 05:24:23;;;;;;;5.15;4.65;;;;;;;;;;5095520;28;20095;-59
2023/10/19 05:26:49;;;;;;;6.15;5.07;;;;;;;;;;5095416;28;20051;-59
2023/10/19 05:29:15;;;;;;;5.93;5.25;;;;;;;;;;5095188;28;20058;-59
2023/10/19 05:31:41;;;;;;;5.88;5.28;;;;;;;;;;5095232;28;20020;-59
2023/10/19 05:34:08;;;;;;;7.53;5.30;;;;;;;;;;5095090;28;20035;-59
2023/10/19 05:36:34;;;;;;;9.35;5.47;;;;;;;;;;5094978;28;20132;-59
2023/10/19 05:39:00;;;;;;;5.07;3.90;;;;;;;;;;5094942;28;20031;-59
2023/10/19 05:41:26;;;;;;;5.45;4.95;;;;;;;;;;5095182;28;20071;-59
2023/10/19 05:43:53;;;;;;;5.45;4.63;;;;;;;;;;5093819;28;20031;-59
2023/10/19 05:46:21;;;;;;;5.07;3.78;;;;;;;;;;5095331;28;20038;-59
2023/10/19 05:48:49;;;;;;;6.10;4.15;;;;;;;;;;5094768;28;20038;-59
2023/10/19 05:51:15;;;;;;;6.55;4.50;;;;;;;;;;5094793;28;20088;-59
2023/10/19 05:53:41;;;;;;;5.07;3.90;;;;;;;;;;5094691;28;20073;-59
2023/10/19 05:56:07;;;;;;;3.70;3.13;;;;;;;;;;5095396;28;20119;-60
2023/10/19 05:58:33;;;;;;;6.45;4.00;;;;;;;;;;5094518;28;20059;-59
2023/10/19 06:01:00;;;;;;;11.43;4.28;;;;;;;;;;5095181;28;20168;-59
2023/10/19 06:03:26;;;;;;;4.25;3.55;;;;;;;;;;5094863;28;20173;-59
2023/10/19 06:05:56;;;;;;;5.13;3.78;;;;;;;;;;5094925;28;20021;-59
2023/10/19 06:08:22;;;;;;;3.73;3.23;;;;;;;;;;5094911;28;20032;-59
2023/10/19 06:10:54;;;;;;;6.35;3.25;;;;;;;;;;5094624;28;20021;-59
2023/10/19 06:13:20;;;;;;;4.53;3.63;;;;;;;;;;5094557;28;20028;-59
2023/10/19 06:15:48;;;;;;;4.78;3.80;;;;;;;;;;5094182;28;20411;-59
2023/10/19 06:18:14;;;;;;;7.82;3.45;;;;;;;;;;5094230;28;20043;-59
2023/10/19 06:20:44;;;;;;;5.38;3.78;;;;;;;;;;5094754;28;20064;-59
2023/10/19 06:23:11;;;;;;;6.18;4.00;;;;;;;;;;5093885;28;20454;-59
2023/10/19 06:25:37;;;;;;;3.85;3.13;;;;;;;;;;5094044;28;20378;-59
2023/10/19 06:28:03;;;;;;;5.82;4.50;;;;;;;;;;5094237;28;20035;-59
2023/10/19 06:30:30;;;;;;;5.13;4.20;;;;;;;;;;5094119;28;20020;-59
2023/10/19 06:32:59;;;;;;;9.52;4.68;;;;;;;;;;5093776;28;20113;-59
2023/10/19 06:35:25;;;;;;;7.93;4.67;;;;;;;;;;5094483;28;20056;-59
2023/10/19 06:37:53;;;;;;;8.73;4.75;;;;;;;;;;5094721;28;20355;-59
2023/10/19 06:40:19;;;;;;;7.00;3.63;;;;;;;;;;5094728;28;20109;-59
2023/10/19 06:42:45;;;;;;;6.63;4.28;;;;;;;;;;5094107;28;20422;-59
2023/10/19 06:45:13;;;;;;;4.35;3.95;;;;;;;;;;5094633;28;20111;-59
2023/10/19 06:47:40;;;;;;;7.93;4.30;;;;;;;;;;5093737;28;20028;-59
2023/10/19 06:50:10;;;;;;;5.30;4.80;;;;;;;;;;5094443;28;20028;-59
2023/10/19 06:52:36;;;;;;;5.47;4.97;;;;;;;;;;5093736;28;20032;-59
2023/10/19 06:55:03;;;;;;;4.53;3.47;;;;;;;;;;5094347;28;20082;-59
2023/10/19 06:57:29;;;;;;;5.53;4.05;;;;;;;;;;5094225;28;20024;-59
2023/10/19 06:59:55;;;;;;;4.32;3.85;;;;;;;;;;5093893;28;20089;-59
2023/10/19 07:02:21;;;;;;;4.93;4.10;;;;;;;;;;5093534;28;20028;-59
2023/10/19 07:04:47;;;;;;;6.63;4.80;;;;;;;;;;5093938;28;20023;-59
2023/10/19 07:07:14;;;;;;;5.20;4.03;;;;;;;;;;5093515;28;20497;-59
2023/10/19 07:09:41;;;;;;;5.60;5.07;;;;;;;;;;5094388;28;20024;-59
2023/10/19 07:12:07;;;;;;;6.75;6.15;;;;;;;;;;5093485;28;20028;-59
2023/10/19 07:14:33;;;;;;;6.53;5.72;;;;;;;;;;5093425;28;20025;-59
2023/10/19 07:16:59;;;;;;;6.60;5.97;;;;;;;;;;5093428;28;20028;-59
2023/10/19 07:19:25;;;;;;;6.65;6.05;;;;;;;;;;5093598;28;20024;-59
2023/10/19 07:21:57;;;;;;;6.05;5.05;;;;;;;;;;5093625;28;20029;-59
2023/10/19 07:24:23;;;;;;;7.57;5.35;;;;;;;;;;5094029;28;20107;-60
2023/10/19 07:27:04;;;;;;;6.72;5.40;;;;;;;;;;5095079;28;20035;-59
2023/10/19 07:29:30;;;;;;;7.95;7.13;;;;;;;;;;5097799;28;20051;-59
2023/10/19 07:31:58;;;;;;;9.18;8.30;;;;;;;;;;5098124;28;20031;-59
2023/10/19 07:34:27;;;;;;;8.23;6.78;;;;;;;;;;5097357;28;20081;-59
2023/10/19 07:36:54;;;;;;;6.15;5.43;;;;;;;;;;5097233;28;20055;-59
2023/10/19 07:39:20;;;;;;;6.38;5.78;;;;;;;;;;5097049;28;20028;-59
2023/10/19 07:41:46;;;;;;;11.23;6.97;;;;;;;;;;5097203;28;20028;-59
2023/10/19 07:44:13;;;;;;;9.75;6.97;;;;;;;;;;5097512;28;20439;-59
2023/10/19 07:46:38;;;;;;;8.18;7.38;;;;;;;;;;5097106;28;20035;-59
2023/10/19 07:49:05;;;;;;;7.75;7.00;;;;;;;;;;5096766;28;20028;-59
2023/10/19 07:51:33;;;;;;;10.95;9.43;;;;;;;;;;5097438;28;20020;-59
2023/10/19 07:53:58;;;;;;;9.40;8.50;;;;;;;;;;5097567;28;20454;-59
2023/10/19 07:56:24;;;;;;;8.68;7.85;;;;;;;;;;5097244;28;20084;-59
2023/10/19 07:58:51;;;;;;;8.48;7.63;;;;;;;;;;5096775;28;20024;-59
2023/10/19 08:01:17;;;;;;;8.98;7.97;;;;;;;;;;5096957;28;20529;-59
2023/10/19 08:03:43;;;;;;;8.85;8.00;;;;;;;;;;5096651;28;20056;-59
2023/10/19 08:06:09;;;;;;;9.75;8.73;;;;;;;;;;5096470;28;20063;-59
2023/10/19 08:08:35;;;;;;;10.38;8.77;;;;;;;;;;5097228;28;20024;-59
2023/10/19 08:11:01;;;;;;;10.23;8.07;;;;;;;;;;5097112;28;20359;-59
2023/10/19 08:13:32;;;;;;;9.05;7.50;;;;;;;;;;5096362;28;20450;-59
2023/10/19 08:15:58;;;;;;;9.02;8.23;;;;;;;;;;5097226;28;20024;-59
2023/10/19 08:18:24;;;;;;;9.02;8.23;;;;;;;;;;5096706;28;20038;-59
2023/10/19 08:20:50;;;;;;;7.20;6.50;;;;;;;;;;5097173;28;20135;-59
2023/10/19 08:23:23;;;;;;;8.13;6.57;;;;;;;;;;5096460;28;20070;-59
2023/10/19 08:25:50;;;;;;;7.95;6.97;;;;;;;;;;5097022;28;20449;-59
2023/10/19 08:28:16;;;;;;;7.68;6.68;;;;;;;;;;5096331;28;20077;-59
2023/10/19 08:30:44;;;;;;;14.48;7.10;;;;;;;;;;5096548;28;20036;-59
2023/10/19 08:33:13;;;;;;;8.07;7.28;;;;;;;;;;5096406;28;20138;-59
2023/10/19 08:35:39;;;;;;;7.25;6.55;;;;;;;;;;5095995;28;20024;-59
2023/10/19 08:38:11;;;;;;;8.20;6.05;;;;;;;;;;5095639;28;20374;-59
2023/10/19 08:40:38;;;;;;;7.07;6.38;;;;;;;;;;5096542;28;20063;-59
2023/10/19 08:43:04;;;;;;;9.63;6.88;;;;;;;;;;5096110;28;20024;-59
2023/10/19 08:45:30;;;;;;;7.70;6.90;;;;;;;;;;5095992;28;20036;-59
2023/10/19 08:47:57;;;;;;;7.68;6.97;;;;;;;;;;5096414;28;20157;-59
2023/10/19 08:50:28;;;;;;;8.27;6.95;;;;;;;;;;5096256;28;20024;-59
2023/10/19 08:52:54;;;;;;;;;;;;;;;;;;5096212;28;20028;-59
2023/10/19 08:55:20;;;;;;;8.85;6.97;;;;;;;;;;5095863;28;19904;-59
2023/10/19 08:57:50;;;;;;;9.40;7.45;;;;;;;;;;5095768;28;20031;-59
2023/10/19 09:00:24;;;;;;;8.10;6.75;;;;;;;;;;5095842;28;20020;-59
2023/10/19 09:02:51;;;;;;;9.02;6.75;;;;;;;;;;5096709;28;20024;-59
2023/10/19 09:05:22;;;;;;;7.97;7.15;;;;;;;;;;5095958;28;20365;-59
2023/10/19 09:07:54;;;;;;;7.70;6.22;;;;;;;;;;5095991;28;20024;-59
2023/10/19 09:10:21;;;;;;;6.45;5.85;;;;;;;;;;5096357;28;20430;-59
2023/10/19 09:12:59;;;;;;;6.38;5.82;;;;;;;;;;5095593;28;20077;-59
2023/10/19 09:15:26;;;;;;;8.02;6.07;;;;;;;;;;5095871;28;20030;-59
2023/10/19 09:17:54;;;;;;;6.85;6.15;;;;;;;;;;5095310;28;20111;-59
2023/10/19 09:20:27;;;;;;;6.03;5.43;;;;;;;;;;5095483;28;20035;-59
2023/10/19 09:22:53;;;;;;;6.30;5.70;;;;;;;;;;5095706;28;20024;-59
2023/10/19 09:25:19;;;;;;;5.72;5.10;;;;;;;;;;5095299;28;20115;-59
2023/10/19 09:27:45;;;;;;;6.45;5.85;;;;;;;;;;5095827;28;20099;-59
2023/10/19 09:30:13;;;;;;;7.75;7.05;;;;;;;;;;5095535;28;20020;-59
2023/10/19 09:32:39;;;;;;;8.07;6.25;;;;;;;;;;5095401;28;20028;-59
2023/10/19 09:35:06;;;;;;;7.05;6.45;;;;;;;;;;5095077;28;20035;-59
2023/10/19 09:37:32;;;;;;;7.07;5.53;;;;;;;;;;5095598;28;20170;-59
2023/10/19 09:39:58;;;;;;;6.20;5.63;;;;;;;;;;5095743;28;20024;-59
2023/10/19 09:42:26;;;;;;;7.03;6.25;;;;;;;;;;5094929;28;20024;-59
2023/10/19 09:45:05;;;;;;;6.38;5.70;;;;;;;;;;5093681;28;20130;-59
2023/10/19 09:47:35;;;;;;;6.55;4.85;;;;;;;;;;5095331;28;20027;-59
2023/10/19 09:50:01;;;;;;;5.43;4.43;;;;;;;;;;5095321;28;20161;-59
2023/10/19 09:52:28;;;;;;;5.57;4.80;;;;;;;;;;5094751;28;20118;-59
2023/10/19 09:55:04;;;;;;;5.95;4.78;;;;;;;;;;5094685;28;20059;-59
2023/10/19 09:57:38;;;;;;;6.53;4.75;;;;;;;;;;5094899;28;20020;-59
2023/10/19 10:00:11;;;;;;;6.13;5.20;;;;;;;;;;5094220;28;20043;-59
2023/10/19 10:02:38;;;;;;;5.10;4.60;;;;;;;;;;5095263;28;20020;-59
2023/10/19 10:05:05;;;;;;;5.85;4.45;;;;;;;;;;5094712;28;20024;-59
2023/10/19 10:07:31;;;;;;;7.60;4.75;;;;;;;;;;5094097;28;20470;-59
2023/10/19 10:09:57;;;;;;;5.70;4.15;;;;;;;;;;5094848;28;20469;-59
2023/10/19 10:12:24;;;;;;;5.55;4.45;;;;;;;;;;5094948;28;20012;-59
2023/10/19 10:15:02;;;;;;;4.43;4.03;;;;;;;;;;5094364;28;20054;-59
2023/10/19 10:17:28;;;;;;;8.15;4.30;;;;;;;;;;5094297;28;20107;-59
2023/10/19 10:19:56;;;;;;;4.93;3.80;;;;;;;;;;5094244;28;20034;-59
2023/10/19 10:22:22;;;;;;;5.25;4.38;;;;;;;;;;5094728;28;20032;-59
2023/10/19 10:24:54;;;;;;;4.55;4.15;;;;;;;;;;5094217;28;20024;-59
2023/10/19 10:27:20;;;;;;;5.75;5.13;;;;;;;;;;5094748;28;20023;-59
2023/10/19 10:30:01;;;;;;;6.03;5.18;;;;;;;;;;5094919;28;20372;-59
2023/10/19 10:32:26;;;;;;;;;;;;;;;;;;5094380;28;20073;-59
2023/10/19 10:34:52;;;;;;;4.75;4.22;;;;;;;;;;5094079;28;19907;-59
2023/10/19 10:37:20;;;;;;;5.47;4.88;;;;;;;;;;5094287;28;20044;-59
2023/10/19 10:39:46;;;;;;;5.95;5.05;;;;;;;;;;5094222;28;20370;-59
2023/10/19 10:42:12;;;;;;;5.93;5.18;;;;;;;;;;5093987;28;20024;-59
2023/10/19 10:44:46;;;;;;;5.60;5.07;;;;;;;;;;5094652;28;20020;-59
2023/10/19 10:47:22;;;;;;;7.32;4.47;;;;;;;;;;5094442;28;20407;-59
2023/10/19 10:49:54;;;;;;;6.55;4.65;;;;;;;;;;5094076;28;20024;-59
2023/10/19 10:52:29;;;;;;;4.32;3.70;;;;;;;;;;5093794;28;20113;-59
2023/10/19 10:54:55;;;;;;;4.47;3.85;;;;;;;;;;5093756;28;20327;-59
2023/10/19 10:57:21;;;;;;;5.55;5.05;;;;;;;;;;5093671;28;20016;-59
2023/10/19 10:59:47;;;;;;;5.20;4.30;;;;;;;;;;5093952;28;20115;-59
2023/10/19 11:02:17;;;;;;;5.45;4.80;;;;;;;;;;5093591;28;20101;-59
2023/10/19 11:04:44;;;;;;;6.20;5.03;;;;;;;;;;5094281;28;20024;-59
2023/10/19 11:07:18;;;;;;;7.40;5.28;;;;;;;;;;5093776;28;20046;-59
2023/10/19 11:09:47;;;;;;;7.20;6.20;;;;;;;;;;5093957;28;20488;-59
2023/10/19 11:12:15;;;;;;;8.70;6.93;;;;;;;;;;5093927;28;20024;-59
2023/10/19 11:14:53;;;;;;;6.72;6.05;;;;;;;;;;5094408;28;20031;-59
2023/10/19 11:17:23;;;;;;;8.20;6.75;;;;;;;;;;5093526;28;20054;-59
2023/10/19 11:19:49;;;;;;;7.20;6.50;;;;;;;;;;5094046;28;20060;-59
2023/10/19 11:22:15;;;;;;;7.80;6.82;;;;;;;;;;5094193;28;20401;-59
2023/10/19 11:24:41;;;;;;;6.38;5.78;;;;;;;;;;5093199;28;20020;-59
2023/10/19 11:27:07;;;;;;;5.88;5.38;;;;;;;;;;5093743;28;20020;-59
2023/10/19 11:29:34;;;;;;;8.05;5.72;;;;;;;;;;5094045;28;20020;-59
2023/10/19 11:32:00;;;;;;;5.50;4.82;;;;;;;;;;5093820;28;20028;-59
2023/10/19 11:34:26;;;;;;;5.90;5.22;;;;;;;;;;5093363;28;20350;-59
2023/10/19 11:36:56;;;;;;;5.60;4.60;;;;;;;;;;5094197;28;20044;-59
2023/10/19 11:39:23;;;;;;;5.00;4.50;;;;;;;;;;5093287;28;20028;-59
2023/10/19 11:41:49;;;;;;;6.55;4.70;;;;;;;;;;5093513;28;20084;-59
2023/10/19 11:44:15;;;;;;;5.97;4.20;;;;;;;;;;5093285;28;20114;-58
2023/10/19 11:46:41;;;;;;;8.02;5.15;;;;;;;;;;5093097;28;20016;-59
2023/10/19 11:49:09;;;;;;;5.10;4.60;;;;;;;;;;5093162;28;20028;-60
2023/10/19 11:51:35;;;;;;;4.60;4.05;;;;;;;;;;5093669;28;20073;-59
2023/10/19 11:54:01;;;;;;;5.57;5.00;;;;;;;;;;5093248;28;20411;-59
2023/10/19 11:56:27;;;;;;;4.45;4.03;;;;;;;;;;5093643;28;20020;-59
2023/10/19 11:58:53;;;;;;;5.13;4.20;;;;;;;;;;5093152;28;20035;-59
2023/10/19 12:01:19;;;;;;;5.07;3.90;;;;;;;;;;5092980;28;20070;-59
2023/10/19 12:03:48;;;;;;;4.43;3.53;;;;;;;;;;5092692;28;20103;-59
2023/10/19 12:06:23;;;;;;;4.78;4.32;;;;;;;;;;5093125;28;20069;-59
2023/10/19 12:08:49;;;;;;;6.53;4.32;;;;;;;;;;5093931;28;20092;-59
2023/10/19 12:11:16;;;;;;;6.95;4.85;;;;;;;;;;5093423;28;20092;-59
2023/10/19 12:13:46;;;;;;;5.45;4.30;;;;;;;;;;5094423;28;20146;-59
2023/10/19 12:16:13;;;;;;;4.80;3.58;;;;;;;;;;5097257;28;20081;-59
2023/10/19 12:18:39;;;;;;;4.95;3.92;;;;;;;;;;5096241;28;20462;-60
2023/10/19 12:21:11;;;;;;;4.97;4.43;;;;;;;;;;5097328;28;20025;-59
2023/10/19 12:23:37;;;;;;;5.55;5.05;;;;;;;;;;5097291;28;20029;-59
2023/10/19 12:26:08;;;;;;;5.28;4.72;;;;;;;;;;5097139;28;20020;-59
2023/10/19 12:28:34;;;;;;;6.07;5.32;;;;;;;;;;5096904;28;20085;-59
2023/10/19 12:31:00;;;;;;;6.57;5.40;;;;;;;;;;5096465;28;20031;-59
2023/10/19 12:33:26;;;;;;;6.18;5.57;;;;;;;;;;5095592;28;20020;-59
2023/10/19 12:35:56;;;;;;;7.55;5.80;;;;;;;;;;5096397;28;20087;-59
2023/10/19 12:38:22;;;;;;;7.03;6.35;;;;;;;;;;5097092;28;20119;-59
2023/10/19 12:40:50;;;;;;;5.97;5.05;;;;;;;;;;5096551;28;20060;-59
2023/10/19 12:43:18;;;;;;;7.47;6.70;;;;;;;;;;5096691;28;20028;-59
2023/10/19 12:45:48;;;;;;;6.60;5.97;;;;;;;;;;5096517;28;20016;-60
2023/10/19 12:48:16;;;;;;;7.50;6.70;;;;;;;;;;5096687;28;20060;-59
2023/10/19 12:50:42;;;;;;;7.75;6.95;;;;;;;;;;5095946;28;20103;-59
2023/10/19 12:53:08;;;;;;;8.93;7.07;;;;;;;;;;5095658;28;20047;-59
2023/10/19 12:55:37;;;;;;;9.23;6.57;;;;;;;;;;5095855;28;20035;-59
2023/10/19 12:58:07;;;;;;;9.52;6.60;;;;;;;;;;5095799;28;20072;-59
2023/10/19 13:00:40;;;;;;;7.73;6.37;;;;;;;;;;5096175;28;20463;-59
2023/10/19 13:03:07;;;;;;;7.38;6.38;;;;;;;;;;5096025;28;20243;-59
2023/10/19 13:05:34;;;;;;;8.50;6.32;;;;;;;;;;5095867;28;20235;-60
2023/10/19 13:08:00;;;;;;;6.75;6.15;;;;;;;;;;5096145;28;20020;-60
2023/10/19 13:10:33;;;;;;;10.98;8.68;;;;;;;;;;5096424;28;20020;-59
2023/10/19 13:13:03;;;;;;;8.88;7.55;;;;;;;;;;5094581;28;20374;-59
2023/10/19 13:15:30;;;;;;;10.13;7.75;;;;;;;;;;5095302;28;20012;-60
2023/10/19 13:17:58;;;;;;;8.80;7.82;;;;;;;;;;5094858;28;20469;-60
2023/10/19 13:20:25;;;;;;;8.50;7.70;;;;;;;;;;5095727;28;20036;-59
2023/10/19 13:22:51;;;;;;;9.68;8.77;;;;;;;;;;5095231;28;20024;-59
2023/10/19 13:25:17;;;;;;;9.75;8.43;;;;;;;;;;5094921;28;20027;-59
2023/10/19 13:27:45;;;;;;;9.25;8.25;;;;;;;;;;5095177;28;20012;-59
2023/10/19 13:30:14;;;;;;;9.35;8.55;;;;;;;;;;5095495;28;20315;-59
2023/10/19 13:32:41;;;;;;;9.98;9.07;;;;;;;;;;5095118;28;20028;-59
2023/10/19 13:35:07;;;;;;;9.90;8.90;;;;;;;;;;5094953;28;20052;-60
2023/10/19 13:37:33;;;;;;;9.85;8.63;;;;;;;;;;5094913;28;20446;-59
2023/10/19 13:39:59;;;;;;;10.50;9.32;;;;;;;;;;5095028;28;20066;-60
2023/10/19 13:42:25;;;;;;;10.32;9.13;;;;;;;;;;5094993;28;20021;-60
2023/10/19 13:44:51;;;;;;;10.35;7.82;;;;;;;;;;5094943;28;20028;-60
2023/10/19 13:47:17;;;;;;;10.60;8.85;;;;;;;;;;5094653;28;20043;-60
2023/10/19 13:49:43;;;;;;;10.38;9.48;;;;;;;;;;5095173;28;20020;-59
2023/10/19 13:52:09;;;;;;;10.30;9.18;;;;;;;;;;5094467;28;20355;-60
2023/10/19 13:54:38;;;;;;;9.45;8.45;;;;;;;;;;5094554;28;20035;-60
2023/10/19 13:57:04;;;;;;;9.68;7.88;;;;;;;;;;5094485;28;20382;-60
2023/10/19 13:59:33;;;;;;;9.02;8.15;;;;;;;;;;5094388;28;20032;-59
2023/10/19 14:01:59;;;;;;;7.85;7.00;;;;;;;;;;5094265;28;20020;-60
2023/10/19 14:04:25;;;;;;;8.80;7.95;;;;;;;;;;5094174;28;20030;-60
2023/10/19 14:06:51;;;;;;;7.78;6.97;;;;;;;;;;5094391;28;20100;-60
2023/10/19 14:09:17;;;;;;;9.07;7.97;;;;;;;;;;5094617;28;20056;-59
2023/10/19 14:11:47;;;;;;;8.18;7.40;;;;;;;;;;5094324;28;20028;-59
2023/10/19 14:14:13;;;;;;;8.90;7.75;;;;;;;;;;5094168;28;20059;-59
2023/10/19 14:16:39;;;;;;;10.02;8.65;;;;;;;;;;5093944;28;20016;-59
2023/10/19 14:19:05;;;;;;;11.98;8.50;;;;;;;;;;5094865;28;20116;-59
2023/10/19 14:21:32;;;;;;;12.70;8.35;;;;;;;;;;5094469;28;20020;-59
2023/10/19 14:23:58;;;;;;;9.57;8.05;;;;;;;;;;5094098;28;20177;-60
2023/10/19 14:26:24;;;;;;;9.43;8.50;;;;;;;;;;5094049;28;20024;-60
2023/10/19 14:28:50;;;;;;;10.07;8.18;;;;;;;;;;5094256;28;20073;-60
2023/10/19 14:31:16;;;;;;;13.75;8.57;;;;;;;;;;5093909;28;20109;-60
2023/10/19 14:33:42;;;;;;;10.10;8.65;;;;;;;;;;5093891;28;20099;-59
2023/10/19 14:36:09;;;;;;;10.63;9.63;;;;;;;;;;5092908;28;20040;-60
2023/10/19 14:38:36;;;;;;;9.35;8.45;;;;;;;;;;5094064;28;20036;-59
2023/10/19 14:41:02;;;;;;;11.20;8.75;;;;;;;;;;5094071;28;20028;-59
2023/10/19 14:43:29;;;;;;;9.23;8.32;;;;;;;;;;5093501;28;20542;-59
2023/10/19 14:45:56;;;;;;;9.77;8.77;;;;;;;;;;5093716;28;20118;-59
2023/10/19 14:48:23;;;;;;;10.20;9.10;;;;;;;;;;5093823;28;20079;-60
2023/10/19 14:50:51;;;;;;;10.77;9.68;;;;;;;;;;5093857;28;20032;-59
2023/10/19 14:53:17;;;;;;;10.57;8.93;;;;;;;;;;5093663;28;20017;-59
2023/10/19 14:55:45;;;;;;;9.25;8.38;;;;;;;;;;5093636;28;20035;-60
2023/10/19 14:58:12;;;;;;;8.90;7.82;;;;;;;;;;5094006;28;20021;-60
2023/10/19 15:00:42;;;;;;;13.68;12.07;;;;;;;;;;5094321;28;20020;-60